createdAt,value
2018-02-22T00:03:50.615Z,101874.64
2018-02-22T00:08:44.914Z,101869.86
2018-02-22T00:13:39.536Z,101871.57
2018-02-22T00:18:33.880Z,101862.86
2018-02-22T00:23:28.227Z,101864.61
2018-02-22T00:28:22.508Z,101865.45
2018-02-22T00:33:16.952Z,101858.47
2018-02-22T00:38:12.082Z,101853.69
2018-02-22T00:43:06.915Z,101857.14
2018-02-22T00:48:01.236Z,101853.66
2018-02-22T00:52:55.539Z,101847.98
2018-02-22T00:57:49.846Z,101843.22
2018-02-22T01:02:44.948Z,101837.13
2018-02-22T01:07:39.226Z,101843.20
2018-02-22T01:12:34.293Z,101844.88
2018-02-22T01:17:28.718Z,101851.84
2018-02-22T01:22:23.028Z,101841.84
2018-02-22T01:27:18.220Z,101842.29
2018-02-22T01:32:12.517Z,101853.11
2018-02-22T01:37:06.931Z,101850.06
2018-02-22T01:42:01.197Z,101844.86
2018-02-22T01:46:55.508Z,101849.17
2018-02-22T01:51:49.776Z,101846.14
2018-02-22T01:56:44.085Z,101839.23
2018-02-22T02:01:38.572Z,101840.50
2018-02-22T02:06:33.731Z,101833.13
2018-02-22T02:11:28.789Z,101826.20
2018-02-22T02:16:23.484Z,101816.69
2018-02-22T02:21:17.834Z,101820.57
2018-02-22T02:26:12.132Z,101824.45
2018-02-22T02:31:06.574Z,101820.54
2018-02-22T02:36:01.052Z,101811.42
2018-02-22T02:40:55.348Z,101818.75
2018-02-22T02:45:49.662Z,101818.28
2018-02-22T02:50:43.953Z,101810.48
2018-02-22T02:55:38.265Z,101806.55
2018-02-22T03:00:32.590Z,101800.08
2018-02-22T03:05:26.862Z,101806.98
2018-02-22T03:10:21.183Z,101802.20
2018-02-22T03:15:15.464Z,101800.86
2018-02-22T03:20:09.814Z,101809.94
2018-02-22T03:25:03.869Z,101803.93
2018-02-22T03:29:58.158Z,101797.83
2018-02-22T03:34:52.507Z,101799.18
2018-02-22T03:39:46.950Z,101807.77
2018-02-22T03:44:41.250Z,101801.71
2018-02-22T03:49:35.549Z,101800.36
2018-02-22T03:54:30.518Z,101798.58
2018-02-22T03:59:24.989Z,101805.03
2018-02-22T04:04:19.525Z,101807.64
2018-02-22T04:09:13.829Z,101805.47
2018-02-22T04:14:08.105Z,101804.13
2018-02-22T04:19:03.228Z,101798.50
2018-02-22T04:23:57.694Z,101806.30
2018-02-22T04:28:52.880Z,101810.16
2018-02-22T04:33:47.199Z,101814.46
2018-02-22T04:38:41.500Z,101823.11
2018-02-22T04:43:35.923Z,101821.79
2018-02-22T04:48:30.981Z,101825.68
2018-02-22T04:53:25.287Z,101825.19
2018-02-22T04:58:19.777Z,101825.17
2018-02-22T05:03:14.089Z,101829.91
2018-02-22T05:08:08.395Z,101827.73
2018-02-22T05:13:02.741Z,101830.33
2018-02-22T05:17:57.392Z,101822.97
2018-02-22T05:22:51.743Z,101825.55
2018-02-22T05:27:46.480Z,101817.31
2018-02-22T05:32:41.767Z,101828.12
2018-02-22T05:37:36.238Z,101827.23
2018-02-22T05:42:31.050Z,101823.34
2018-02-22T05:47:25.537Z,101823.34
2018-02-22T05:52:19.836Z,101817.23
2018-02-22T05:57:14.154Z,101830.63
2018-02-22T06:02:08.570Z,101837.92
2018-02-22T06:07:02.878Z,101849.63
2018-02-22T06:11:57.279Z,101847.84
2018-02-22T06:16:51.579Z,101846.60
2018-02-22T06:21:45.951Z,101850.48
2018-02-22T06:26:40.269Z,101852.25
2018-02-22T06:31:34.569Z,101856.61
2018-02-22T06:36:29.686Z,101860.98
2018-02-22T06:41:23.985Z,101862.30
2018-02-22T06:46:18.333Z,101864.06
2018-02-22T06:51:12.942Z,101871.84
2018-02-22T06:56:07.274Z,101872.34
2018-02-22T07:01:01.768Z,101872.88
2018-02-22T07:05:56.860Z,101866.92
2018-02-22T07:10:51.636Z,101873.49
2018-02-22T07:15:46.189Z,101871.46
2018-02-22T07:20:41.324Z,101876.28
2018-02-22T07:25:36.521Z,101874.66
2018-02-22T07:30:31.134Z,101872.17
2018-02-22T07:35:25.439Z,101874.46
2018-02-22T07:40:19.736Z,101869.80
2018-02-22T07:45:14.058Z,101877.84
2018-02-22T07:50:09.275Z,101869.25
2018-02-22T07:55:04.384Z,101873.87
2018-02-22T07:59:59.498Z,101869.47
2018-02-22T08:04:53.953Z,101867.03
2018-02-22T08:09:48.274Z,101864.77
2018-02-22T08:14:42.564Z,101862.47
2018-02-22T08:19:36.874Z,101864.80
2018-02-22T08:24:31.289Z,101858.00
2018-02-22T08:29:25.403Z,101856.57
2018-02-22T08:34:19.697Z,101853.90
2018-02-22T08:39:14.268Z,101845.44
2018-02-22T08:44:08.750Z,101839.38
2018-02-22T08:49:03.068Z,101839.91
2018-02-22T08:53:57.396Z,101833.63
2018-02-22T08:58:51.702Z,101830.45
2018-02-22T09:03:46.045Z,101838.83
2018-02-22T09:08:41.117Z,101829.84
2018-02-22T09:13:35.434Z,101828.55
2018-02-22T09:18:29.785Z,101831.77
2018-02-22T09:23:24.093Z,101815.55
2018-02-22T09:28:18.410Z,101816.45
2018-02-22T09:33:12.691Z,101818.39
2018-02-22T09:38:07.320Z,101809.75
2018-02-22T09:43:01.609Z,101817.94
2018-02-22T09:47:56.087Z,101812.12
2018-02-22T09:52:51.151Z,101810.38
2018-02-22T09:57:45.455Z,101821.85
2018-02-22T10:02:39.757Z,101815.50
2018-02-22T10:07:34.050Z,101819.11
2018-02-22T10:12:28.363Z,101811.43
2018-02-22T10:17:22.649Z,101821.70
2018-02-22T10:22:17.074Z,101822.88
2018-02-22T10:27:11.714Z,101817.88
2018-02-22T10:32:07.015Z,101818.28
2018-02-22T10:37:01.397Z,101816.63
2018-02-22T10:41:55.699Z,101823.19
2018-02-22T10:46:50.254Z,101806.41
2018-02-22T10:51:45.298Z,101807.37
2018-02-22T10:56:39.609Z,101795.01
2018-02-22T11:01:39.399Z,101802.09
2018-02-22T11:06:34.467Z,101796.27
2018-02-22T11:11:28.761Z,101799.54
2018-02-22T11:16:23.055Z,101802.02
2018-02-22T11:21:17.373Z,101776.24
2018-02-22T11:26:11.661Z,101804.50
2018-02-22T11:31:05.947Z,101787.97
2018-02-22T11:36:00.263Z,101778.78
2018-02-22T11:40:54.554Z,101777.28
2018-02-22T11:45:48.858Z,101771.84
2018-02-22T11:50:43.156Z,101751.22
2018-02-22T11:55:37.451Z,101750.69
2018-02-22T12:00:31.822Z,101749.66
2018-02-22T12:05:26.920Z,101748.34
2018-02-22T12:10:21.385Z,101752.02
2018-02-22T12:15:15.670Z,101747.77
2018-02-22T12:20:09.995Z,101738.00
2018-02-22T12:25:04.129Z,101732.50
2018-02-22T12:29:59.209Z,101725.34
2018-02-22T12:34:53.469Z,101720.84
2018-02-22T12:39:48.535Z,101706.31
2018-02-22T12:44:42.849Z,101706.81
2018-02-22T12:49:37.120Z,101706.69
2018-02-22T12:54:31.405Z,101699.95
2018-02-22T12:59:25.686Z,101684.61
2018-02-22T13:04:20.857Z,101680.83
2018-02-22T13:09:15.160Z,101674.42
2018-02-22T13:14:09.679Z,101669.45
2018-02-22T13:19:04.023Z,101659.45
2018-02-22T13:23:59.340Z,101655.44
2018-02-22T13:28:54.412Z,101653.42
2018-02-22T13:34:06.063Z,101644.98
2018-02-22T13:39:09.724Z,101634.59
2018-02-22T13:44:21.210Z,101639.00
2018-02-22T13:49:32.611Z,101628.41
2018-02-22T13:54:26.998Z,101626.66
2018-02-22T13:59:22.239Z,101611.38
2018-02-22T14:04:16.513Z,101610.94
2018-02-22T14:09:11.888Z,101599.77
2018-02-22T14:14:06.388Z,101598.27
2018-02-22T14:19:00.686Z,101596.83
2018-02-22T14:23:54.985Z,101592.13
2018-02-22T14:28:49.286Z,101591.73
2018-02-22T14:33:43.351Z,101577.08
2018-02-22T14:38:38.772Z,101581.58
2018-02-22T14:43:33.834Z,101578.15
2018-02-22T14:48:28.134Z,101564.26
2018-02-22T14:53:22.428Z,101565.21
2018-02-22T14:58:16.833Z,101567.40
2018-02-22T15:03:11.118Z,101569.98
2018-02-22T15:08:05.451Z,101564.30
2018-02-22T15:12:59.775Z,101569.66
2018-02-22T15:17:54.098Z,101570.72
2018-02-22T15:22:49.157Z,101577.44
2018-02-22T15:27:45.177Z,101565.08
2018-02-22T15:32:39.462Z,101572.42
2018-02-22T15:37:34.513Z,101579.23
2018-02-22T15:42:28.809Z,101574.72
2018-02-22T15:47:23.143Z,101576.44
2018-02-22T15:52:17.659Z,101573.44
2018-02-22T15:57:12.004Z,101587.25
2018-02-22T16:02:06.570Z,101581.83
2018-02-22T16:07:00.856Z,101595.18
2018-02-22T16:11:55.188Z,101588.83
2018-02-22T16:16:50.392Z,101583.33
2018-02-22T16:21:44.882Z,101600.20
2018-02-22T16:26:39.677Z,101599.03
2018-02-22T16:31:33.837Z,101604.47
2018-02-22T16:36:29.104Z,101610.81
2018-02-22T16:41:24.430Z,101619.22
2018-02-22T16:46:18.803Z,101609.75
2018-02-22T16:51:13.106Z,101617.76
2018-02-22T16:56:07.563Z,101616.66
2018-02-22T17:01:02.815Z,101628.56
2018-02-22T17:05:57.860Z,101634.32
2018-02-22T17:10:52.411Z,101629.65
2018-02-22T17:15:46.782Z,101632.80
2018-02-22T17:20:41.071Z,101637.70
2018-02-22T17:25:34.518Z,101642.16
2018-02-22T17:30:34.967Z,101644.42
2018-02-22T17:35:31.436Z,101647.13
2018-02-22T17:40:29.023Z,101647.20
2018-02-22T17:45:23.298Z,101663.41
2018-02-22T17:50:18.423Z,101654.78
2018-02-22T17:55:12.858Z,101664.37
2018-02-22T18:00:06.979Z,101669.69
2018-02-22T18:05:01.353Z,101671.51
2018-02-22T18:09:55.965Z,101680.30
2018-02-22T18:14:50.369Z,101686.45
2018-02-22T18:19:44.483Z,101686.08
2018-02-22T18:24:38.587Z,101693.06
2018-02-22T18:29:32.878Z,101698.68
2018-02-22T18:34:27.249Z,101706.99
2018-02-22T18:39:29.171Z,101702.34
2018-02-22T18:44:28.865Z,101702.00
2018-02-22T18:49:23.352Z,101712.06
2018-02-22T18:54:17.711Z,101716.03
2018-02-22T18:59:12.186Z,101726.11
2018-02-22T19:04:06.496Z,101722.21
2018-02-22T19:09:00.781Z,101724.41
2018-02-22T19:13:55.065Z,101732.67
2018-02-22T19:18:51.468Z,101736.13
2018-02-22T19:23:45.759Z,101738.70
2018-02-22T19:28:40.063Z,101740.05
2018-02-22T19:33:34.342Z,101745.75
2018-02-22T19:38:28.657Z,101748.81
2018-02-22T19:43:23.073Z,101745.36
2018-02-22T19:48:17.371Z,101751.47
2018-02-22T19:53:11.665Z,101745.42
2018-02-22T19:58:05.953Z,101745.86
2018-02-22T20:03:00.282Z,101749.35
2018-02-22T20:07:54.566Z,101753.25
2018-02-22T20:12:49.044Z,101758.91
2018-02-22T20:17:43.348Z,101762.84
2018-02-22T20:22:37.830Z,101757.19
2018-02-22T20:27:32.161Z,101755.44
2018-02-22T20:32:26.483Z,101751.09
2018-02-22T20:37:20.887Z,101747.20
2018-02-22T20:42:15.184Z,101753.28
2018-02-22T20:47:10.009Z,101755.86
2018-02-22T20:52:03.889Z,101758.91
2018-02-22T20:56:58.205Z,101762.80
2018-02-22T21:01:52.871Z,101762.34
2018-02-22T21:06:47.178Z,101770.14
2018-02-22T21:11:41.662Z,101774.47
2018-02-22T21:16:36.148Z,101773.62
2018-02-22T21:21:31.212Z,101774.02
2018-02-22T21:26:25.525Z,101770.11
2018-02-22T21:31:19.823Z,101773.15
2018-02-22T21:36:14.114Z,101759.71
2018-02-22T21:41:08.428Z,101767.05
2018-02-22T21:46:02.728Z,101766.61
2018-02-22T21:50:57.218Z,101767.05
2018-02-22T21:55:51.714Z,101761.38
2018-02-22T22:00:46.125Z,101764.38
2018-02-22T22:05:40.439Z,101769.61
2018-02-22T22:10:34.733Z,101763.09
2018-02-22T22:15:29.442Z,101763.51
2018-02-22T22:20:23.738Z,101762.64
2018-02-22T22:25:18.005Z,101760.48
2018-02-22T22:30:13.121Z,101758.33
2018-02-22T22:35:08.200Z,101750.09
2018-02-22T22:40:02.596Z,101753.59
2018-02-22T22:44:56.921Z,101751.42
2018-02-22T22:49:51.210Z,101747.09
2018-02-22T22:54:45.521Z,101751.02
2018-02-22T22:59:40.110Z,101744.50
2018-02-22T23:04:34.414Z,101742.73
2018-02-22T23:09:28.579Z,101740.50
2018-02-22T23:14:22.884Z,101732.25
2018-02-22T23:19:17.189Z,101734.41
2018-02-22T23:24:11.487Z,101738.70
2018-02-22T23:29:06.297Z,101733.48
2018-02-22T23:34:01.324Z,101727.42
2018-02-22T23:38:55.427Z,101718.31
2018-02-22T23:43:49.534Z,101715.72
2018-02-22T23:48:43.832Z,101712.67
2018-02-22T23:53:38.428Z,101714.38
2018-02-22T23:58:32.720Z,101715.21
